Time;durP1;ratioP1;P1;durP2;ratioP2;P2;SDS_P1;SDS_P2;PMS_P1;PMS_P2;Temp;Humidity;BMP_temperature;BMP_pressure;BME280_temperature;BME280_humidity;BME280_pressure;Samples;Min_cycle;Max_cycle;Signal;HPM_P1;HPM_P2
2023/01/03 00:01:40;;;;;;;44.48;26.30;;;;;;;12.63;71.38;100497.33;1748185;82;21049;-65
2023/01/03 00:04:07;;;;;;;50.88;26.35;;;;;;;12.56;70.98;100501.11;1748299;82;21093;-65
2023/01/03 00:06:44;;;;;;;39.55;23.00;;;;;;;12.44;70.96;100505.56;1718332;83;21138;-64
2023/01/03 00:09:15;;;;;;;42.55;25.57;;;;;;;12.52;70.21;100497.75;1718417;83;21041;-64
2023/01/03 00:14:34;;;;;;;33.67;20.55;;;;;;;12.15;70.66;100503.59;1707110;83;21736;-65
2023/01/03 00:17:02;;;;;;;51.70;27.17;;;;;;;12.31;69.99;100504.72;1705035;84;21049;-64
2023/01/03 00:19:34;;;;;;;48.98;27.73;;;;;;;12.37;69.26;100499.66;1705120;84;21792;-64
2023/01/03 00:22:00;;;;;;;55.80;30.15;;;;;;;12.38;68.68;100503.56;1704782;83;21034;-65
2023/01/03 00:24:31;;;;;;;52.43;30.10;;;;;;;12.34;68.50;100509.02;1704936;84;21070;-65
2023/01/03 00:26:59;;;;;;;55.75;31.42;;;;;;;12.32;68.67;100501.15;1705072;84;21526;-64
2023/01/03 00:29:26;;;;;;;62.60;35.50;;;;;;;11.28;72.04;100500.94;1705089;84;21549;-65
2023/01/03 00:31:53;;;;;;;59.48;34.63;;;;;;;11.53;71.63;100496.53;1704880;83;21079;-65
2023/01/03 00:34:19;;;;;;;52.67;30.52;;;;;;;11.31;72.61;100492.45;1704672;84;21042;-65
2023/01/03 00:36:47;;;;;;;67.15;36.38;;;;;;;11.93;70.33;100489.84;1704780;84;21536;-65
2023/01/03 00:39:15;;;;;;;51.28;29.77;;;;;;;11.95;70.65;100486.70;1704738;84;21046;-64
2023/01/03 00:41:45;;;;;;;62.15;32.33;;;;;;;12.00;70.14;100485.20;1704801;84;21085;-64
2023/01/03 00:44:13;;;;;;;51.73;30.00;;;;;;;11.73;70.84;100483.08;1704494;84;21035;-64
2023/01/03 00:46:40;;;;;;;67.05;31.52;;;;;;;11.25;72.78;100478.18;1704742;84;21093;-65
2023/01/03 00:49:09;;;;;;;61.83;34.55;;;;;;;11.21;72.89;100473.06;1704322;84;21089;-64
2023/01/03 00:51:38;;;;;;;55.15;31.68;;;;;;;11.45;72.64;100470.87;1704545;84;21041;-65
2023/01/03 00:54:07;;;;;;;63.33;33.85;;;;;;;11.32;73.16;100465.19;1705014;84;21057;-64
2023/01/03 00:56:36;;;;;;;66.37;35.68;;;;;;;11.59;72.62;100454.55;1704727;84;21725;-65
2023/01/03 00:59:05;;;;;;;61.02;33.42;;;;;;;11.87;71.80;100452.23;1705012;84;21053;-64
2023/01/03 01:01:42;;;;;;;70.45;37.58;;;;;;;11.72;71.73;100454.98;1704890;84;21057;-65
2023/01/03 01:04:16;;;;;;;56.18;33.55;;;;;;;11.63;72.03;100455.32;1704937;84;21089;-65
2023/01/03 01:06:51;;;;;;;59.33;33.28;;;;;;;11.79;71.70;100452.98;1704866;84;21089;-66
2023/01/03 01:09:27;;;;;;;61.40;33.50;;;;;;;11.87;70.98;100449.19;1704888;84;21208;-65
2023/01/03 01:11:55;;;;;;;59.53;33.65;;;;;;;11.74;71.46;100449.20;1704522;84;21022;-65
2023/01/03 01:14:23;;;;;;;63.33;34.13;;;;;;;11.95;70.80;100452.84;1709879;83;21505;-66
2023/01/03 01:17:01;;;;;;;63.87;34.60;;;;;;;11.95;70.33;100440.51;1712959;83;21592;-64
2023/01/03 01:19:32;;;;;;;57.55;31.77;;;;;;;12.02;70.30;100439.81;1712811;83;21045;-64
2023/01/03 01:21:59;;;;;;;53.25;29.80;;;;;;;11.78;71.25;100431.02;1712173;83;21128;-65
2023/01/03 01:24:26;;;;;;;52.17;30.48;;;;;;;12.02;70.72;100421.81;1712567;83;21536;-64
2023/01/03 01:28:03;;;;;;;47.57;30.17;;;;;;;10.19;82.46;100415.73;1796707;79;27534;-64
2023/01/03 01:30:33;;;;;;;53.20;32.42;;;;;;;11.68;73.72;100417.75;1756624;81;21092;-65
2023/01/03 01:33:01;;;;;;;56.37;32.00;;;;;;;11.89;72.16;100415.69;1756502;81;21040;-66
2023/01/03 01:35:31;;;;;;;46.25;27.07;;;;;;;11.85;72.45;100415.36;1756187;81;21052;-65
2023/01/03 01:37:59;;;;;;;49.83;29.65;;;;;;;11.92;71.80;100398.41;1756483;81;21042;-65
2023/01/03 01:40:28;;;;;;;51.58;29.45;;;;;;;11.99;71.89;100403.45;1756089;81;21041;-65
2023/01/03 01:45:40;;;;;;;51.98;30.17;;;;;;;12.19;70.51;100399.55;1756393;81;22604;-64
2023/01/03 01:48:11;;;;;;;53.60;30.83;;;;;;;12.05;70.93;100397.92;1756444;81;21018;-65
2023/01/03 01:50:50;;;;;;;;;;;;;;;12.34;70.43;100393.67;1734068;82;20997;-65
2023/01/03 01:53:28;;;;;;;52.83;30.82;;;;;;;12.50;69.32;100393.06;1748294;82;20183;-65
2023/01/03 01:56:02;;;;;;;52.03;29.07;;;;;;;12.08;70.91;100396.50;1748238;82;21371;-64
2023/01/03 01:58:34;;;;;;;38.13;23.22;;;;;;;11.67;72.21;100387.03;1748270;82;21269;-64
2023/01/03 02:01:10;;;;;;;47.05;27.15;;;;;;;11.91;71.55;100382.15;1748074;82;21033;-65
2023/01/03 02:03:37;;;;;;;36.95;21.73;;;;;;;11.93;71.63;100376.36;1748334;82;21034;-64
2023/01/03 02:06:05;;;;;;;39.23;24.27;;;;;;;12.33;70.31;100365.56;1747991;82;21058;-64
2023/01/03 02:08:31;;;;;;;43.58;26.77;;;;;;;12.29;70.36;100356.03;1748136;82;21541;-64
2023/01/03 02:11:28;;;;;;;41.45;23.87;;;;;;;12.14;71.12;100354.00;1748104;82;21132;-66
2023/01/03 02:14:42;;;;;;;39.42;23.90;;;;;;;11.94;71.77;100350.38;1747880;81;21553;-64
2023/01/03 02:17:35;;;;;;;46.85;27.20;;;;;;;11.85;72.87;100355.98;1748166;81;21018;-64
2023/01/03 02:20:35;;;;;;;44.25;26.55;;;;;;;12.31;71.44;100340.99;1747887;82;21521;-64
2023/01/03 02:23:36;;;;;;;47.67;26.80;;;;;;;12.44;70.56;100341.80;1748266;82;21076;-65
2023/01/03 02:26:52;;;;;;;45.73;26.07;;;;;;;12.27;70.68;100349.95;1747830;82;21152;-65
2023/01/03 02:29:39;;;;;;;48.50;28.85;;;;;;;12.27;70.99;100352.59;1748603;82;21473;-65
2023/01/03 02:32:14;;;;;;;44.88;27.25;;;;;;;12.30;70.86;100343.22;1748913;82;21053;-65
2023/01/03 02:35:07;;;;;;;38.67;21.90;;;;;;;12.16;71.05;100331.89;1748711;82;21105;-64
2023/01/03 02:37:58;;;;;;;55.28;31.17;;;;;;;11.83;71.54;100331.44;1738870;82;21014;-64
2023/01/03 02:40:33;;;;;;;59.38;32.53;;;;;;;11.74;72.20;100329.16;1741388;82;21613;-64
2023/01/03 02:43:11;;;;;;;52.78;29.15;;;;;;;11.36;73.91;100322.68;1748164;82;21045;-66
2023/01/03 02:46:08;;;;;;;56.28;32.75;;;;;;;11.85;72.25;100321.68;1748117;81;21113;-64
2023/01/03 02:49:01;;;;;;;54.30;29.18;;;;;;;11.84;72.35;100319.09;1748368;82;21054;-64
2023/01/03 02:51:48;;;;;;;44.10;25.68;;;;;;;12.12;71.81;100310.96;1748104;81;21058;-64
2023/01/03 02:54:30;;;;;;;49.13;28.80;;;;;;;11.99;71.80;100307.12;1748028;82;21138;-65
2023/01/03 02:57:08;;;;;;;47.95;27.40;;;;;;;12.14;71.22;100302.52;1747422;82;21081;-64
2023/01/03 02:59:48;;;;;;;42.98;25.10;;;;;;;12.31;70.42;100298.73;1748559;81;21100;-65
2023/01/03 03:02:14;;;;;;;48.60;27.00;;;;;;;12.68;68.91;100302.47;1748202;82;21116;-65
2023/01/03 03:04:43;;;;;;;51.20;29.25;;;;;;;12.52;68.91;100303.58;1748247;82;21037;-64
2023/01/03 03:07:25;;;;;;;44.10;25.57;;;;;;;12.37;69.26;100302.42;1720784;82;21109;-65
2023/01/03 03:15:29;;;;;;;47.20;26.30;;;;;;;12.23;69.81;100299.50;1748381;82;21037;-65
2023/01/03 03:18:01;;;;;;;43.52;25.25;;;;;;;12.24;69.72;100297.71;1748568;82;21017;-64
2023/01/03 03:25:47;;;;;;;49.83;29.85;;;;;;;11.95;69.90;100281.30;1709162;82;21037;-65
2023/01/03 03:28:36;;;;;;;49.63;28.23;;;;;;;11.95;70.28;100286.11;1748217;81;21627;-65
2023/01/03 03:31:32;;;;;;;49.98;28.27;;;;;;;12.01;70.11;100280.17;1748233;82;21125;-65
2023/01/03 03:34:25;;;;;;;48.35;28.17;;;;;;;11.93;70.18;100268.15;1748388;82;21190;-65
2023/01/03 03:37:03;;;;;;;54.23;30.97;;;;;;;11.89;70.67;100278.45;1748414;81;21021;-64
2023/01/03 03:45:44;;;;;;;57.67;31.40;;;;;;;11.92;70.60;100270.41;1748210;82;21104;-64
2023/01/03 03:49:36;;;;;;;52.00;28.83;;;;;;;12.19;70.35;100272.82;1748310;82;21859;-65
2023/01/03 03:51:10;;;;;;;47.50;27.90;;;;;;;12.13;70.32;100267.81;1744159;82;21014;-65
2023/01/03 03:53:36;;;;;;;53.80;29.45;;;;;;;11.97;71.12;100264.94;1748442;82;21571;-65
2023/01/03 03:56:11;;;;;;;49.58;27.93;;;;;;;11.98;71.15;100267.11;1748121;81;21066;-64
2023/01/03 03:58:40;;;;;;;46.30;26.97;;;;;;;12.13;70.44;100255.94;1748331;81;21112;-65
2023/01/03 04:01:08;;;;;;;50.80;29.30;;;;;;;12.39;68.98;100246.44;1748484;81;21075;-65
2023/01/03 04:03:35;;;;;;;47.85;28.32;;;;;;;12.17;69.83;100253.58;1748263;82;21014;-64
2023/01/03 04:06:09;;;;;;;53.25;28.70;;;;;;;11.85;70.59;100245.16;1724433;81;21505;-64
2023/01/03 04:08:36;;;;;;;50.05;28.30;;;;;;;12.04;69.88;100249.72;1718486;83;21609;-64
2023/01/03 04:11:06;;;;;;;46.80;28.35;;;;;;;11.92;70.11;100249.77;1718522;83;21061;-64
2023/01/03 04:13:35;;;;;;;53.53;30.37;;;;;;;12.00;69.47;100250.76;1718710;83;21154;-65
2023/01/03 04:16:04;;;;;;;48.85;28.73;;;;;;;11.82;69.89;100240.45;1718785;83;21045;-65
2023/01/03 04:18:30;;;;;;;49.67;28.57;;;;;;;11.92;69.83;100241.38;1718381;83;21021;-64
2023/01/03 04:20:57;;;;;;;57.03;30.65;;;;;;;11.88;69.81;100235.81;1718411;83;21018;-65
2023/01/03 04:23:24;;;;;;;48.87;28.50;;;;;;;11.88;70.22;100235.81;1718526;83;22245;-65
2023/01/03 04:25:50;;;;;;;56.65;30.12;;;;;;;11.65;70.95;100235.86;1718476;83;21182;-64
2023/01/03 04:28:17;;;;;;;52.35;29.98;;;;;;;11.35;72.32;100237.45;1713030;83;21105;-64
2023/01/03 04:30:44;;;;;;;48.92;28.77;;;;;;;11.50;72.26;100226.32;1718420;83;21077;-65
2023/01/03 04:33:11;;;;;;;61.25;33.70;;;;;;;11.78;71.38;100227.86;1691679;83;21558;-64
2023/01/03 04:35:38;;;;;;;48.75;28.23;;;;;;;11.76;71.75;100236.30;1718474;83;21064;-65
2023/01/03 04:38:05;;;;;;;59.30;32.38;;;;;;;11.98;71.09;100235.44;1718269;83;21218;-65
2023/01/03 04:40:33;;;;;;;55.98;31.40;;;;;;;12.06;70.41;100239.95;1718572;83;21041;-65
2023/01/03 04:45:47;;;;;;;62.03;32.93;;;;;;;11.83;71.29;100252.73;1718343;83;21101;-65
2023/01/03 04:48:15;;;;;;;51.02;29.75;;;;;;;12.12;70.72;100244.96;1718664;83;21072;-64
2023/01/03 04:50:41;;;;;;;55.38;29.98;;;;;;;12.03;71.14;100245.34;1718556;83;21754;-64
2023/01/03 04:53:09;;;;;;;55.28;31.12;;;;;;;11.73;71.79;100236.39;1718270;83;21041;-65
2023/01/03 04:55:35;;;;;;;43.85;26.35;;;;;;;11.93;71.58;100233.84;1718242;83;21140;-65
2023/01/03 04:58:02;;;;;;;38.75;23.62;;;;;;;11.85;71.57;100222.73;1718331;83;21033;-66
2023/01/03 05:00:28;;;;;;;50.65;29.55;;;;;;;11.85;71.99;100226.69;1718258;83;21052;-65
2023/01/03 05:02:55;;;;;;;49.35;28.55;;;;;;;11.87;71.79;100224.88;1718539;83;21313;-66
2023/01/03 05:05:22;;;;;;;53.68;31.20;;;;;;;11.67;72.19;100218.20;1734001;82;21033;-64
2023/01/03 05:07:50;;;;;;;48.33;29.25;;;;;;;11.45;72.94;100219.02;1748298;81;21248;-65
2023/01/03 05:10:17;;;;;;;48.05;28.90;;;;;;;11.45;72.60;100211.11;1748188;81;21048;-64
2023/01/03 05:12:58;;;;;;;53.55;31.65;;;;;;;11.37;72.94;100205.30;1748339;81;20998;-63
2023/01/03 05:15:12;;;;;;;49.48;29.45;;;;;;;11.40;73.24;100205.63;1745327;82;21133;-64
2023/01/03 05:17:39;;;;;;;57.40;31.70;;;;;;;11.39;73.21;100210.05;1748213;82;20997;-65
2023/01/03 05:25:49;;;;;;;55.03;30.35;;;;;;;11.64;71.19;100193.23;1748069;82;21108;-66
2023/01/03 05:28:18;;;;;;;54.38;29.07;;;;;;;11.45;71.99;100184.74;1748177;81;21105;-66
2023/01/03 05:30:46;;;;;;;54.77;31.35;;;;;;;11.41;72.26;100187.13;1747110;82;21049;-64
2023/01/03 05:33:12;;;;;;;58.30;33.58;;;;;;;11.55;71.18;100190.06;1747998;82;21553;-65
2023/01/03 05:35:46;;;;;;;52.23;31.00;;;;;;;11.38;71.53;100192.50;1748047;82;21088;-66
2023/01/03 05:38:14;;;;;;;54.95;31.95;;;;;;;11.50;71.08;100197.31;1722470;82;21139;-65
2023/01/03 05:40:41;;;;;;;58.42;32.95;;;;;;;11.55;70.50;100195.34;1748041;82;22182;-65
2023/01/03 05:43:08;;;;;;;45.55;27.77;;;;;;;11.57;70.29;100195.72;1748174;82;21038;-65
2023/01/03 05:45:37;;;;;;;57.40;33.50;;;;;;;11.83;69.83;100196.01;1748194;82;21041;-65
2023/01/03 05:48:05;;;;;;;56.53;32.20;;;;;;;12.14;68.86;100196.45;1748289;82;21073;-64
2023/01/03 05:50:31;;;;;;;42.17;25.23;;;;;;;11.75;70.12;100197.62;1748133;82;21345;-65
2023/01/03 05:52:58;;;;;;;57.70;33.05;;;;;;;11.89;69.81;100196.65;1748186;81;21134;-65
2023/01/03 05:55:29;;;;;;;49.85;29.37;;;;;;;11.96;69.37;100191.52;1747988;82;21038;-65
2023/01/03 05:57:55;;;;;;;53.38;31.82;;;;;;;11.68;70.48;100197.47;1748068;81;21057;-65
2023/01/03 06:00:22;;;;;;;57.75;32.50;;;;;;;12.01;69.33;100192.64;1748229;82;21545;-65
2023/01/03 06:02:50;;;;;;;57.03;32.85;;;;;;;12.08;69.58;100198.52;1748160;81;21292;-65
2023/01/03 06:05:16;;;;;;;56.58;33.40;;;;;;;12.10;69.50;100196.21;1733625;82;21139;-65
2023/01/03 06:07:46;;;;;;;52.38;30.85;;;;;;;11.81;69.92;100193.42;1718210;83;21072;-65
2023/01/03 06:10:14;;;;;;;55.43;32.63;;;;;;;12.09;69.35;100201.55;1718510;83;21081;-65
2023/01/03 06:12:41;;;;;;;55.75;32.08;;;;;;;11.94;69.77;100199.95;1718397;83;21025;-65
2023/01/03 06:15:09;;;;;;;42.40;25.02;;;;;;;11.70;70.85;100200.91;1718399;83;21054;-66
2023/01/03 06:18:01;;;;;;;61.75;34.27;;;;;;;11.87;70.29;100198.48;1718737;83;21135;-66
2023/01/03 06:20:26;;;;;;;53.40;31.25;;;;;;;12.04;70.57;100202.20;1717407;83;21073;-66
2023/01/03 06:22:53;;;;;;;49.93;29.67;;;;;;;12.06;70.84;100206.96;1718470;83;21049;-65
2023/01/03 06:25:20;;;;;;;55.28;31.95;;;;;;;12.02;71.20;100204.05;1718591;83;21037;-65
2023/01/03 06:27:46;;;;;;;48.33;27.75;;;;;;;12.04;71.75;100204.84;1718362;83;21081;-66
2023/01/03 06:30:14;;;;;;;46.70;29.10;;;;;;;12.10;71.82;100209.84;1718357;83;21528;-65
2023/01/03 06:32:43;;;;;;;47.25;29.55;;;;;;;12.12;71.71;100209.32;1718830;83;21049;-65
2023/01/03 06:35:11;;;;;;;44.58;27.42;;;;;;;12.28;71.69;100207.75;1718565;83;21029;-63
2023/01/03 06:37:38;;;;;;;48.08;29.75;;;;;;;12.22;72.13;100201.42;1718695;83;21061;-66
2023/01/03 06:40:07;;;;;;;48.42;28.65;;;;;;;12.17;72.61;100200.30;1718392;83;21621;-65
2023/01/03 06:42:43;;;;;;;45.95;25.85;;;;;;;12.37;72.47;100196.78;1719065;83;21189;-65
2023/01/03 06:53:37;;;;;;;51.00;30.65;;;;;;;12.89;71.53;100199.38;1718623;83;21108;-65
2023/01/03 06:56:04;;;;;;;51.67;29.20;;;;;;;12.82;72.30;100205.88;1718653;83;22644;-67
2023/01/03 06:58:33;;;;;;;42.05;25.02;;;;;;;13.06;71.88;100210.03;1718532;83;21754;-65
2023/01/03 07:01:03;;;;;;;52.65;28.55;;;;;;;13.12;71.38;100208.43;1718256;83;21062;-66
2023/01/03 07:03:31;;;;;;;45.03;24.67;;;;;;;13.03;72.06;100202.25;1718483;83;21096;-65
2023/01/03 07:05:58;;;;;;;43.95;26.15;;;;;;;12.86;72.96;100199.50;1713754;82;21687;-65
2023/01/03 07:08:26;;;;;;;46.35;27.52;;;;;;;13.09;72.71;100199.33;1748322;81;21107;-66
2023/01/03 07:11:02;;;;;;;43.58;26.55;;;;;;;13.28;72.71;100190.57;1748180;81;21030;-66
2023/01/03 07:16:19;;;;;;;46.92;28.20;;;;;;;13.41;73.77;100183.74;1748178;81;21052;-65
2023/01/03 07:18:46;;;;;;;47.35;26.90;;;;;;;13.49;74.63;100206.73;1748573;82;21057;-66
2023/01/03 07:21:12;;;;;;;49.42;28.95;;;;;;;13.80;74.90;100225.09;1747971;82;21079;-66
2023/01/03 07:23:39;;;;;;;35.92;23.05;;;;;;;14.00;75.69;100214.38;1748132;82;21085;-65
2023/01/03 07:26:06;;;;;;;44.93;23.60;;;;;;;15.19;72.46;100211.75;1748389;82;21042;-65
2023/01/03 07:28:34;;;;;;;37.15;23.67;;;;;;;15.66;71.79;100217.51;1748164;81;21050;-65
2023/01/03 07:31:02;;;;;;;32.90;19.73;;;;;;;16.25;69.46;100213.70;1748395;82;21022;-66
2023/01/03 07:33:31;;;;;;;37.05;21.20;;;;;;;16.35;67.40;100223.31;1748309;82;21131;-65
2023/01/03 07:36:05;;;;;;;28.42;17.30;;;;;;;16.55;64.08;100226.96;1748392;81;21088;-65
2023/01/03 07:38:31;;;;;;;30.72;17.35;;;;;;;16.63;62.85;100234.94;1748150;82;21065;-66
2023/01/03 07:40:59;;;;;;;26.87;17.30;;;;;;;17.07;60.81;100234.92;1748213;82;21537;-66
2023/01/03 07:43:38;;;;;;;23.12;15.28;;;;;;;16.88;59.89;100243.16;1748350;82;21046;-66
2023/01/03 07:46:17;;;;;;;27.20;17.70;;;;;;;16.93;60.05;100242.43;1748582;82;21512;-67
2023/01/03 07:48:49;;;;;;;24.92;16.52;;;;;;;17.19;60.07;100238.13;1748237;82;21566;-67
2023/01/03 07:51:22;;;;;;;23.70;15.78;;;;;;;17.36;59.19;100241.05;1748417;82;21014;-65
2023/01/03 07:53:52;;;;;;;26.35;16.70;;;;;;;17.98;57.87;100239.78;1748488;82;21037;-66
2023/01/03 07:56:20;;;;;;;22.62;15.38;;;;;;;18.52;57.74;100240.16;1748604;82;21018;-65
2023/01/03 07:58:50;;;;;;;23.83;14.85;;;;;;;18.76;55.95;100237.63;1748409;82;21399;-66
2023/01/03 08:01:21;;;;;;;21.77;14.53;;;;;;;19.17;53.26;100228.56;1748557;82;21521;-67
2023/01/03 08:03:48;;;;;;;26.55;15.08;;;;;;;18.92;52.35;100239.63;1748196;82;21057;-65
2023/01/03 08:06:18;;;;;;;21.75;15.00;;;;;;;19.24;51.65;100235.17;1748506;82;21538;-65
2023/01/03 08:13:16;;;;;;;20.70;13.68;;;;;;;19.31;51.33;100229.77;1747598;82;21026;-65
2023/01/03 08:14:01;;;;;;;23.52;15.55;;;;;;;18.85;51.56;100223.69;1747940;82;21649;-67
2023/01/03 08:16:29;;;;;;;21.17;14.47;;;;;;;18.58;52.28;100229.08;1748300;81;21101;-66
2023/01/03 08:18:57;;;;;;;22.27;14.40;;;;;;;18.58;52.14;100221.08;1748295;82;21077;-65
2023/01/03 08:21:23;;;;;;;23.50;14.73;;;;;;;18.40;52.46;100215.19;1748444;82;21077;-66
2023/01/03 08:23:53;;;;;;;24.30;14.45;;;;;;;18.09;53.03;100226.61;1748234;82;20995;-66
2023/01/03 08:26:21;;;;;;;22.80;14.93;;;;;;;17.95;53.28;100229.34;1747768;82;21518;-67
2023/01/03 08:28:47;;;;;;;23.30;14.85;;;;;;;17.53;54.42;100238.66;1748312;82;21057;-66
2023/01/03 08:31:27;;;;;;;23.62;15.50;;;;;;;17.39;54.95;100243.54;1747692;81;21041;-66
2023/01/03 08:33:58;;;;;;;22.37;15.88;;;;;;;17.76;54.44;100238.50;1748581;82;21108;-66
2023/01/03 08:36:27;;;;;;;23.55;15.38;;;;;;;18.23;53.75;100233.19;1748102;81;21218;-67
2023/01/03 08:39:06;;;;;;;20.43;13.78;;;;;;;18.73;53.44;100223.19;1748089;82;21033;-65
2023/01/03 08:41:36;;;;;;;22.35;13.70;;;;;;;18.62;53.58;100220.77;1748027;82;21632;-65
2023/01/03 08:44:05;;;;;;;24.52;13.85;;;;;;;19.20;51.20;100221.66;1748658;82;21089;-66
2023/01/03 08:46:33;;;;;;;21.70;13.08;;;;;;;19.32;50.30;100228.78;1721621;82;21049;-65
2023/01/03 08:49:00;;;;;;;19.87;13.38;;;;;;;19.68;49.75;100217.73;1748232;81;21114;-65
2023/01/03 08:51:28;;;;;;;17.23;12.45;;;;;;;19.80;49.03;100216.00;1748183;82;21002;-66
2023/01/03 08:53:57;;;;;;;19.80;13.50;;;;;;;20.71;47.72;100221.56;1748613;82;21037;-67
2023/01/03 08:56:23;;;;;;;21.27;13.58;;;;;;;20.68;46.87;100220.94;1748203;82;21045;-66
2023/01/03 08:58:59;;;;;;;18.25;11.75;;;;;;;21.44;46.50;100226.56;1748159;82;21002;-67
2023/01/03 09:01:25;;;;;;;22.98;12.60;;;;;;;21.46;45.23;100232.16;1748690;82;21157;-66
2023/01/03 09:03:52;;;;;;;16.10;11.55;;;;;;;21.36;45.23;100223.98;1748300;81;21076;-66
2023/01/03 09:06:19;;;;;;;18.52;12.47;;;;;;;22.11;43.43;100216.13;1694156;83;21024;-66
2023/01/03 09:08:45;;;;;;;15.98;11.45;;;;;;;22.32;43.07;100221.07;1718519;83;21092;-67
2023/01/03 09:11:13;;;;;;;17.60;11.28;;;;;;;22.74;42.13;100225.57;1718378;83;21109;-65
2023/01/03 09:13:40;;;;;;;17.92;11.95;;;;;;;23.22;40.92;100226.32;1718325;83;21312;-66
2023/01/03 09:16:09;;;;;;;17.92;11.90;;;;;;;23.35;40.73;100222.03;1718500;83;21117;-67
2023/01/03 09:18:37;;;;;;;17.98;11.53;;;;;;;23.70;40.02;100218.04;1718427;83;21604;-65
2023/01/03 09:21:04;;;;;;;17.65;11.48;;;;;;;23.42;39.95;100211.09;1718535;83;21093;-64
2023/01/03 09:23:33;;;;;;;16.57;10.43;;;;;;;23.41;40.07;100203.52;1718768;83;21014;-68
2023/01/03 09:26:00;;;;;;;16.48;11.70;;;;;;;23.76;38.93;100204.05;1718643;83;21020;-67
2023/01/03 09:28:27;;;;;;;14.53;10.75;;;;;;;23.82;38.57;100201.65;1718378;83;21073;-66
2023/01/03 09:30:54;;;;;;;16.42;11.03;;;;;;;23.66;38.77;100206.20;1718360;83;21599;-69
2023/01/03 09:33:20;;;;;;;15.80;10.30;;;;;;;24.15;38.58;100214.81;1718470;83;21054;-65
2023/01/03 09:35:47;;;;;;;15.70;10.03;;;;;;;24.24;37.74;100197.82;1718246;83;21069;-66
2023/01/03 09:38:15;;;;;;;16.17;10.28;;;;;;;24.37;37.47;100191.64;1718353;83;21237;-66
2023/01/03 09:40:44;;;;;;;17.73;11.22;;;;;;;24.37;38.40;100191.64;1718334;83;21006;-66
2023/01/03 09:43:19;;;;;;;17.00;10.88;;;;;;;24.93;36.68;100195.84;1718250;83;21073;-67
2023/01/03 09:45:53;;;;;;;20.20;10.88;;;;;;;24.78;36.66;100192.29;1718061;83;21069;-67
2023/01/03 09:48:26;;;;;;;16.23;10.68;;;;;;;25.19;36.24;100188.81;1718513;83;21002;-67
2023/01/03 09:50:53;;;;;;;16.62;10.05;;;;;;;25.39;35.56;100196.78;1718139;83;21110;-66
2023/01/03 10:05:47;;;;;;;13.10;9.15;;;;;;;26.90;33.59;100184.61;1736186;82;21308;-66
2023/01/03 10:08:48;;;;;;;14.15;9.80;;;;;;;27.00;32.36;100173.16;1720064;82;21049;-67
2023/01/03 10:11:24;;;;;;;14.00;9.28;;;;;;;26.83;33.08;100175.45;1748071;82;21089;-68
2023/01/03 10:14:23;;;;;;;15.40;10.13;;;;;;;27.05;32.27;100165.07;1748273;82;20998;-66
2023/01/03 10:17:14;;;;;;;15.03;8.90;;;;;;;27.23;32.34;100163.14;1748169;82;21080;-66
2023/01/03 10:20:19;;;;;;;16.87;10.00;;;;;;;27.51;32.04;100160.17;1746348;82;21133;-66
2023/01/03 10:22:47;;;;;;;15.50;9.38;;;;;;;28.21;31.56;100166.02;1748053;81;21077;-67
2023/01/03 10:25:22;;;;;;;15.20;9.63;;;;;;;28.23;31.02;100168.05;1748788;81;21041;-65
2023/01/03 10:27:55;;;;;;;15.10;9.18;;;;;;;28.67;29.97;100169.53;1748311;81;21104;-66
2023/01/03 10:30:41;;;;;;;15.40;9.68;;;;;;;28.69;29.98;100165.27;1743599;81;21031;-66
2023/01/03 10:33:28;;;;;;;14.40;8.53;;;;;;;28.08;30.62;100160.78;1734014;82;21096;-65
2023/01/03 10:35:56;;;;;;;12.45;8.90;;;;;;;28.18;30.55;100159.59;1734419;82;21081;-66
2023/01/03 10:38:24;;;;;;;14.63;8.78;;;;;;;27.76;31.07;100169.18;1734283;82;21529;-66
2023/01/03 10:40:59;;;;;;;15.08;9.35;;;;;;;27.38;31.23;100179.09;1734403;82;21047;-66
2023/01/03 10:43:32;;;;;;;14.40;8.75;;;;;;;27.67;31.26;100172.37;1734476;82;21054;-67
2023/01/03 10:46:04;;;;;;;18.10;8.18;;;;;;;28.18;30.27;100179.91;1734449;82;21100;-67
2023/01/03 10:48:38;;;;;;;16.35;9.48;;;;;;;27.95;30.42;100181.56;1734250;82;21073;-66
2023/01/03 10:51:35;;;;;;;15.60;8.18;;;;;;;28.04;30.60;100183.27;1733549;82;21137;-67
2023/01/03 10:54:21;;;;;;;11.65;8.45;;;;;;;28.71;30.29;100186.27;1727911;82;21101;-66
2023/01/03 10:56:47;;;;;;;17.07;9.45;;;;;;;28.73;29.65;100189.66;1734506;82;21109;-66
2023/01/03 10:59:28;;;;;;;16.35;9.18;;;;;;;28.55;29.77;100204.27;1734372;82;21225;-66
2023/01/03 11:02:13;;;;;;;16.42;9.88;;;;;;;28.21;29.94;100202.56;1734485;82;21538;-66
2023/01/03 11:04:44;;;;;;;19.57;9.98;;;;;;;27.26;30.87;100210.12;1727174;82;21093;-66
2023/01/03 11:07:14;;;;;;;17.73;9.88;;;;;;;26.77;31.63;100224.72;1704862;84;21116;-67
2023/01/03 11:09:58;;;;;;;20.00;10.30;;;;;;;25.85;32.92;100219.19;1705045;84;21038;-64
2023/01/03 11:12:38;;;;;;;15.38;9.95;;;;;;;24.54;34.78;100213.46;1704858;84;21251;-65
2023/01/03 11:15:26;;;;;;;19.23;10.93;;;;;;;24.01;35.97;100228.20;1705031;84;20999;-66
2023/01/03 11:17:57;;;;;;;19.05;11.40;;;;;;;23.49;37.00;100224.36;1703979;84;21101;-66
2023/01/03 11:20:46;;;;;;;19.23;11.83;;;;;;;22.89;38.04;100226.05;1705189;84;21030;-66
2023/01/03 11:23:27;;;;;;;20.70;12.40;;;;;;;22.72;38.94;100235.59;1705020;84;21053;-67
2023/01/03 11:26:18;;;;;;;20.95;11.65;;;;;;;22.61;39.21;100236.50;1704844;83;21049;-67
2023/01/03 11:28:59;;;;;;;22.10;13.53;;;;;;;21.96;40.27;100241.91;1705232;84;21042;-67
2023/01/03 11:31:39;;;;;;;19.73;12.15;;;;;;;21.72;40.97;100234.07;1704837;83;21535;-66
2023/01/03 11:34:35;;;;;;;18.52;11.57;;;;;;;21.40;41.78;100234.02;1685972;84;21058;-65
2023/01/03 11:37:26;;;;;;;18.52;12.50;;;;;;;21.22;42.33;100236.80;1704630;83;21046;-67
2023/01/03 11:40:08;;;;;;;21.42;12.20;;;;;;;21.34;42.67;100237.14;1693258;84;21519;-66
2023/01/03 11:43:00;;;;;;;21.65;12.47;;;;;;;21.14;42.45;100239.61;1704992;84;21054;-66
2023/01/03 11:45:32;;;;;;;20.48;12.28;;;;;;;20.87;43.59;100247.14;1704848;84;21546;-64
2023/01/03 11:48:27;;;;;;;21.15;11.60;;;;;;;20.58;44.05;100246.22;1702944;84;21542;-67
2023/01/03 11:51:04;;;;;;;17.75;11.15;;;;;;;20.57;44.20;100249.88;1705100;84;21027;-66
2023/01/03 11:53:36;;;;;;;24.70;13.90;;;;;;;20.38;44.67;100259.73;1704401;84;21164;-66
2023/01/03 11:56:35;;;;;;;20.77;12.63;;;;;;;20.57;44.46;100260.58;1704887;84;21054;-66
2023/01/03 11:59:15;;;;;;;22.13;12.13;;;;;;;20.76;44.30;100255.15;1652708;83;21026;-67
2023/01/03 12:02:02;;;;;;;19.82;12.13;;;;;;;20.67;44.64;100270.09;1687261;84;21072;-65
2023/01/03 12:05:07;;;;;;;22.13;13.10;;;;;;;20.74;44.30;100260.11;1709421;82;21062;-65
2023/01/03 12:07:51;;;;;;;20.32;12.25;;;;;;;20.58;45.02;100242.20;1734119;82;21135;-66
2023/01/03 12:11:03;;;;;;;20.77;11.97;;;;;;;20.66;44.57;100250.51;1734008;82;21697;-67
2023/01/03 12:13:38;;;;;;;25.50;12.93;;;;;;;20.60;44.67;100251.47;1734283;82;21057;-66
2023/01/03 12:16:22;;;;;;;24.37;13.70;;;;;;;20.05;45.79;100251.12;1734192;82;21101;-67
2023/01/03 12:19:13;;;;;;;22.45;12.80;;;;;;;20.10;46.04;100254.29;1734128;82;21117;-66
2023/01/03 12:21:44;;;;;;;22.13;12.05;;;;;;;20.66;44.97;100254.98;1705767;82;21828;-66
2023/01/03 12:24:31;;;;;;;21.57;11.57;;;;;;;20.97;44.50;100248.11;1734188;82;21057;-66
2023/01/03 12:27:03;;;;;;;21.68;12.10;;;;;;;21.66;43.26;100244.44;1734011;82;20991;-67
2023/01/03 12:29:50;;;;;;;22.67;11.38;;;;;;;21.40;43.83;100244.73;1733734;82;21586;-67
2023/01/03 12:32:35;;;;;;;20.17;11.90;;;;;;;22.16;42.33;100236.73;1745267;81;21092;-66
2023/01/03 12:35:31;;;;;;;19.55;11.70;;;;;;;22.60;41.18;100235.66;1721938;82;21577;-67
2023/01/03 12:37:59;;;;;;;18.42;11.57;;;;;;;22.80;40.72;100244.69;1747919;82;21061;-67